Colton, South Dakota
Current Conditions -  °F | °C
As of 4:56 PM on Saturday 25 Oct 2014 (Local Time) from KFSD Reporting Station
Clear Clear  
Wind Chill: 66°   Ceiling: Unl
Heat Index: 66°   Visibility: 10mi
Dew Point: 41°   Wind: 5mph
Humidity: 40%   Direction: 40°NE
Pressure: 30.09"   Gusts: NA
Location:  43.79°N, 96.93°W
Report Text: KFSD 252156Z 04004KT 10SM CLR 19/05 A3009 RMK AO2 SLP190 T01890050
Loading
Personal Weather Stations






























Interactive Weather Map
Tropical Storm Tracking
New forecast layout! Learn more

10-Day Weather Forecast

Advertisements
Track Severe Weather on mobile